createdAt,value
2022-08-10T00:01:26.263Z,19.90
2022-08-10T00:04:21.087Z,19.80
2022-08-10T00:07:08.950Z,19.70
2022-08-10T00:09:56.189Z,19.70
2022-08-10T00:12:53.779Z,19.70
2022-08-10T00:15:52.702Z,19.70
2022-08-10T00:18:43.349Z,19.70
2022-08-10T00:21:30.825Z,19.70
2022-08-10T00:24:18.748Z,19.70
2022-08-10T00:27:57.914Z,19.60
2022-08-10T00:30:14.144Z,19.60
2022-08-10T00:33:01.345Z,19.50
2022-08-10T00:35:50.471Z,19.50
2022-08-10T00:38:37.950Z,19.50
2022-08-10T00:41:25.136Z,19.40
2022-08-10T00:44:11.975Z,19.40
2022-08-10T00:47:00.875Z,19.40
2022-08-10T00:49:48.108Z,19.30
2022-08-10T00:52:37.646Z,19.30
2022-08-10T00:55:25.154Z,19.20
2022-08-10T00:58:12.708Z,19.10
2022-08-10T01:00:59.857Z,19.10
2022-08-10T01:04:54.318Z,19.10
2022-08-10T01:07:20.778Z,19.10
2022-08-10T01:10:21.521Z,19.10
2022-08-10T01:13:13.521Z,19.00
2022-08-10T01:16:06.313Z,18.90
2022-08-10T01:18:58.365Z,18.90
2022-08-10T01:22:14.493Z,18.80
2022-08-10T01:25:22.273Z,18.80
2022-08-10T01:28:21.345Z,18.80
2022-08-10T01:31:13.736Z,18.70
2022-08-10T01:34:06.688Z,18.70
2022-08-10T01:37:02.745Z,18.60
2022-08-10T01:39:55.393Z,18.60
2022-08-10T01:42:46.928Z,18.50
2022-08-10T01:45:45.234Z,18.50
2022-08-10T01:48:37.102Z,18.50
2022-08-10T01:51:31.047Z,18.40
2022-08-10T01:54:22.587Z,18.40
2022-08-10T01:57:12.821Z,18.40
2022-08-10T02:00:02.972Z,18.30
2022-08-10T02:02:54.251Z,18.30
2022-08-10T02:05:45.414Z,18.20
2022-08-10T02:08:34.223Z,18.20
2022-08-10T02:11:22.393Z,18.20
2022-08-10T02:14:12.071Z,18.10
2022-08-10T02:17:00.978Z,18.10
2022-08-10T02:19:49.346Z,18.10
2022-08-10T02:22:40.738Z,18.10
2022-08-10T02:25:40.738Z,18.00
2022-08-10T02:28:33.758Z,18.00
2022-08-10T02:31:25.137Z,18.00
2022-08-10T02:34:15.619Z,18.00
2022-08-10T02:37:10.650Z,17.90
2022-08-10T02:40:00.205Z,17.80
2022-08-10T02:45:24.534Z,17.80
2022-08-10T02:46:05.602Z,17.80
2022-08-10T02:49:01.216Z,17.80
2022-08-10T02:52:07.258Z,17.80
2022-08-10T02:55:06.012Z,17.70
2022-08-10T02:58:17.358Z,17.20
2022-08-10T03:01:10.882Z,17.60
2022-08-10T03:04:01.825Z,17.60
2022-08-10T03:06:56.109Z,17.50
2022-08-10T03:09:44.706Z,17.50
2022-08-10T03:12:38.778Z,17.50
2022-08-10T03:15:28.903Z,17.50
2022-08-10T03:18:17.551Z,17.50
2022-08-10T03:21:11.352Z,17.50
2022-08-10T03:24:03.322Z,17.40
2022-08-10T03:27:12.266Z,17.40
2022-08-10T03:30:29.918Z,17.20
2022-08-10T03:33:10.062Z,17.30
2022-08-10T03:36:40.580Z,17.30
2022-08-10T03:39:05.433Z,17.30
2022-08-10T03:41:57.424Z,17.30
2022-08-10T03:44:49.871Z,17.30
2022-08-10T03:47:42.666Z,17.20
2022-08-10T03:50:51.359Z,17.30
2022-08-10T03:54:05.557Z,17.20
2022-08-10T03:56:48.428Z,17.20
2022-08-10T03:59:36.714Z,17.20
2022-08-10T04:02:46.397Z,17.10
2022-08-10T04:05:38.670Z,17.10
2022-08-10T04:08:26.282Z,17.10
2022-08-10T04:11:14.013Z,17.10
2022-08-10T04:14:01.154Z,17.10
2022-08-10T04:16:48.352Z,17.00
2022-08-10T04:19:42.033Z,17.00
2022-08-10T04:25:20.971Z,17.10
2022-08-10T04:28:08.926Z,17.10
2022-08-10T04:30:58.507Z,17.10
2022-08-10T04:33:50.599Z,17.10
2022-08-10T04:36:38.667Z,17.10
2022-08-10T04:39:27.091Z,17.10
2022-08-10T04:42:14.410Z,17.10
2022-08-10T04:45:08.370Z,17.00
2022-08-10T04:48:00.421Z,17.00
2022-08-10T04:50:49.932Z,17.00
2022-08-10T04:54:04.630Z,17.10
2022-08-10T04:56:46.467Z,17.10
2022-08-10T04:59:33.752Z,17.10
2022-08-10T05:02:29.771Z,17.10
2022-08-10T05:05:26.139Z,17.10
2022-08-10T05:08:13.469Z,17.20
2022-08-10T05:11:00.726Z,17.20
2022-08-10T05:13:48.925Z,17.30
2022-08-10T05:16:37.453Z,17.40
2022-08-10T05:20:05.158Z,17.40
2022-08-10T05:22:31.577Z,17.50
2022-08-10T05:25:20.607Z,17.60
2022-08-10T05:28:08.092Z,17.70
2022-08-10T05:30:56.128Z,17.80
2022-08-10T05:33:43.498Z,18.00
2022-08-10T05:36:30.921Z,18.10
2022-08-10T05:39:25.219Z,18.20
2022-08-10T05:42:21.202Z,18.30
2022-08-10T05:45:17.352Z,18.40
2022-08-10T05:48:55.803Z,18.50
2022-08-10T05:51:13.440Z,18.60
2022-08-10T05:54:06.734Z,18.80
2022-08-10T05:56:58.108Z,18.90
2022-08-10T06:00:29.410Z,19.00
2022-08-10T06:03:03.041Z,19.10
2022-08-10T06:05:52.500Z,19.30
2022-08-10T06:08:42.308Z,19.40
2022-08-10T06:12:25.620Z,19.40
2022-08-10T06:14:59.856Z,19.50
2022-08-10T06:17:47.006Z,19.60
2022-08-10T06:20:49.961Z,19.70
2022-08-10T06:23:39.042Z,19.80
2022-08-10T06:26:26.219Z,20.00
2022-08-10T06:29:16.288Z,20.10
2022-08-10T06:32:06.163Z,20.20
2022-08-10T06:34:55.525Z,20.40
2022-08-10T06:37:51.497Z,20.50
2022-08-10T06:40:45.222Z,20.60
2022-08-10T06:43:33.645Z,20.70
2022-08-10T06:46:22.993Z,20.90
2022-08-10T06:49:11.993Z,20.90
2022-08-10T06:52:02.665Z,21.00
2022-08-10T06:54:56.844Z,21.10
2022-08-10T06:57:45.336Z,21.20
2022-08-10T07:00:47.725Z,21.30
2022-08-10T07:03:40.253Z,21.40
2022-08-10T07:06:29.860Z,21.50
2022-08-10T07:09:19.428Z,21.60
2022-08-10T07:12:10.693Z,21.80
2022-08-10T07:14:58.943Z,22.00
2022-08-10T07:17:47.571Z,22.20
2022-08-10T07:20:35.743Z,22.30
2022-08-10T07:23:55.819Z,22.40
2022-08-10T07:26:33.445Z,22.50
2022-08-10T07:29:52.958Z,22.60
2022-08-10T07:32:36.006Z,22.70
2022-08-10T07:35:24.228Z,22.90
2022-08-10T07:38:18.200Z,23.20
2022-08-10T07:41:09.298Z,23.50
2022-08-10T07:43:58.152Z,23.70
2022-08-10T07:46:51.170Z,23.80
2022-08-10T07:49:41.194Z,24.00
2022-08-10T07:52:29.347Z,24.20
2022-08-10T07:55:20.006Z,24.30
2022-08-10T07:58:31.045Z,24.40
2022-08-10T08:01:19.187Z,24.70
2022-08-10T08:04:11.242Z,24.80
2022-08-10T08:07:00.613Z,25.00
2022-08-10T08:09:57.752Z,25.20
2022-08-10T08:12:47.773Z,25.40
2022-08-10T08:16:18.225Z,25.70
2022-08-10T08:19:03.662Z,26.00
2022-08-10T08:24:07.806Z,26.10
2022-08-10T08:25:01.817Z,26.30
2022-08-10T08:27:53.370Z,26.20
2022-08-10T08:33:41.617Z,26.20
2022-08-10T08:36:31.169Z,26.30
2022-08-10T08:39:19.909Z,26.40
2022-08-10T08:42:27.632Z,26.50
2022-08-10T08:45:23.897Z,26.70
2022-08-10T08:48:34.445Z,26.90
2022-08-10T08:52:11.389Z,27.00
2022-08-10T08:54:59.438Z,27.20
2022-08-10T08:57:52.538Z,27.20
2022-08-10T09:00:43.561Z,27.30
2022-08-10T09:03:52.898Z,27.30
2022-08-10T09:06:54.147Z,27.30
2022-08-10T09:10:04.910Z,27.40
2022-08-10T09:12:58.600Z,27.60
2022-08-10T09:15:52.595Z,27.70
2022-08-10T09:18:49.452Z,27.70
2022-08-10T09:21:59.252Z,27.60
2022-08-10T09:25:02.103Z,27.50
2022-08-10T09:27:53.952Z,27.50
2022-08-10T09:31:10.937Z,27.60
2022-08-10T09:36:25.388Z,27.80
2022-08-10T09:37:21.709Z,27.80
2022-08-10T09:41:00.306Z,27.80
2022-08-10T09:43:37.933Z,27.70
2022-08-10T09:46:44.240Z,27.60
2022-08-10T09:49:54.984Z,27.70
2022-08-10T09:52:59.112Z,27.70
2022-08-10T09:56:18.431Z,27.60
2022-08-10T09:59:47.272Z,27.50
2022-08-10T10:02:28.431Z,27.50
2022-08-10T10:05:33.237Z,27.50
2022-08-10T10:08:29.189Z,27.60
2022-08-10T10:11:22.958Z,27.70
2022-08-10T10:14:22.943Z,27.70
2022-08-10T10:17:18.930Z,27.70
2022-08-10T10:20:16.359Z,27.60
2022-08-10T10:23:27.510Z,27.60
2022-08-10T10:26:25.023Z,27.50
2022-08-10T10:29:56.547Z,27.50
2022-08-10T10:32:46.115Z,27.60
2022-08-10T10:35:38.972Z,27.40
2022-08-10T10:38:30.949Z,27.10
2022-08-10T10:41:56.221Z,27.00
2022-08-10T10:44:48.272Z,26.90
2022-08-10T10:47:47.509Z,27.00
2022-08-10T10:50:45.305Z,27.20
2022-08-10T10:53:41.296Z,27.30
2022-08-10T10:56:37.208Z,27.40
2022-08-10T10:59:55.764Z,27.40
2022-08-10T11:02:55.111Z,27.40
2022-08-10T11:05:51.087Z,27.30
2022-08-10T11:08:43.810Z,27.30
2022-08-10T11:12:00.711Z,27.10
2022-08-10T11:14:54.060Z,27.10
2022-08-10T11:17:47.950Z,27.00
2022-08-10T11:20:43.869Z,26.90
2022-08-10T11:23:40.556Z,27.00
2022-08-10T11:26:34.547Z,27.10
2022-08-10T11:29:33.445Z,27.10
2022-08-10T11:32:27.317Z,27.20
2022-08-10T11:35:23.927Z,27.30
2022-08-10T11:38:32.899Z,27.30
2022-08-10T11:42:07.189Z,27.40
2022-08-10T11:44:50.252Z,27.60
2022-08-10T11:47:46.062Z,27.70
2022-08-10T11:50:38.241Z,27.80
2022-08-10T11:53:35.209Z,27.90
2022-08-10T11:56:32.841Z,27.60
2022-08-10T11:59:34.728Z,27.60
2022-08-10T12:02:24.486Z,27.60
2022-08-10T12:05:16.186Z,27.70
2022-08-10T12:10:04.462Z,27.80
2022-08-10T12:11:24.490Z,27.70
2022-08-10T12:14:21.895Z,27.70
2022-08-10T12:17:17.688Z,27.60
2022-08-10T12:20:10.920Z,27.60
2022-08-10T12:22:59.593Z,27.60
2022-08-10T12:25:58.732Z,27.60
2022-08-10T12:28:52.620Z,27.70
2022-08-10T12:31:45.094Z,27.80
2022-08-10T12:34:39.382Z,28.00
2022-08-10T12:37:34.733Z,28.30
2022-08-10T12:40:36.134Z,28.40
2022-08-10T12:44:07.365Z,28.40
2022-08-10T12:46:41.667Z,28.40
2022-08-10T12:49:34.427Z,28.40
2022-08-10T12:52:30.461Z,28.50
2022-08-10T12:55:19.077Z,28.60
2022-08-10T12:58:57.061Z,28.60
2022-08-10T13:01:17.837Z,28.60
2022-08-10T13:04:21.454Z,28.60
2022-08-10T13:08:24.124Z,28.60
2022-08-10T13:10:23.174Z,28.60
2022-08-10T13:13:14.807Z,28.50
2022-08-10T13:16:02.995Z,28.40
2022-08-10T13:18:52.875Z,28.40
2022-08-10T13:21:41.428Z,28.40
2022-08-10T13:24:33.987Z,28.30
2022-08-10T13:28:00.948Z,28.40
2022-08-10T13:30:40.650Z,28.50
2022-08-10T13:34:41.189Z,28.50
2022-08-10T13:36:40.839Z,28.40
2022-08-10T13:39:58.318Z,28.40
2022-08-10T13:42:45.535Z,28.30
2022-08-10T13:45:33.811Z,28.30
2022-08-10T13:48:23.161Z,28.50
2022-08-10T13:51:15.365Z,28.40
2022-08-10T13:54:03.873Z,28.40
2022-08-10T13:56:53.313Z,28.50
2022-08-10T14:08:42.522Z,28.70
2022-08-10T14:11:32.202Z,28.70
2022-08-10T14:14:21.171Z,28.60
2022-08-10T14:17:10.976Z,28.70
2022-08-10T14:19:59.762Z,28.70
2022-08-10T14:22:50.612Z,28.30
2022-08-10T14:25:48.984Z,28.70
2022-08-10T14:28:47.476Z,28.60
2022-08-10T14:31:39.324Z,28.50
2022-08-10T14:36:16.160Z,28.50
2022-08-10T14:38:13.843Z,28.40
2022-08-10T14:41:05.156Z,28.40
2022-08-10T14:43:57.850Z,28.30
2022-08-10T14:46:51.658Z,28.30
2022-08-10T14:49:56.932Z,28.20
2022-08-10T14:52:51.572Z,28.10
2022-08-10T14:55:57.812Z,28.10
2022-08-10T14:58:59.335Z,28.10
2022-08-10T15:02:39.038Z,28.20
2022-08-10T15:05:09.440Z,28.10
2022-08-10T15:07:59.786Z,28.10
2022-08-10T15:10:51.166Z,28.20
2022-08-10T15:13:43.595Z,28.20
2022-08-10T15:16:54.548Z,28.20
2022-08-10T15:20:02.231Z,28.10
2022-08-10T15:22:55.829Z,27.90
2022-08-10T15:25:57.943Z,27.80
2022-08-10T15:29:22.737Z,27.90
2022-08-10T15:32:08.272Z,27.80
2022-08-10T15:35:14.114Z,27.80
2022-08-10T15:38:06.782Z,27.80
2022-08-10T15:40:58.349Z,27.80
2022-08-10T15:43:48.357Z,27.80
2022-08-10T15:46:45.409Z,27.80
2022-08-10T15:49:41.971Z,27.70
2022-08-10T15:53:02.066Z,27.70
2022-08-10T15:55:51.615Z,27.70
2022-08-10T15:58:48.405Z,27.60
2022-08-10T16:02:03.897Z,27.60
2022-08-10T16:04:51.610Z,27.50
2022-08-10T16:07:45.851Z,27.40
2022-08-10T16:10:45.142Z,27.40
2022-08-10T16:13:51.015Z,27.40
2022-08-10T16:16:55.141Z,27.30
2022-08-10T16:19:51.022Z,27.30
2022-08-10T16:22:38.180Z,27.30
2022-08-10T16:25:51.560Z,27.20
2022-08-10T16:37:57.426Z,27.10
2022-08-10T16:40:47.924Z,27.10
2022-08-10T16:43:36.150Z,27.00
2022-08-10T16:46:23.553Z,26.90
2022-08-10T16:49:12.614Z,26.90
2022-08-10T16:52:00.296Z,26.90
2022-08-10T16:54:50.917Z,26.80
2022-08-10T16:57:41.481Z,26.80
2022-08-10T17:00:30.510Z,26.70
2022-08-10T17:03:22.579Z,26.70
2022-08-10T17:06:31.702Z,26.60
2022-08-10T17:09:20.253Z,26.50
2022-08-10T17:12:11.902Z,26.50
2022-08-10T17:15:09.148Z,26.50
2022-08-10T17:18:01.060Z,26.40
2022-08-10T17:20:48.934Z,26.40
2022-08-10T17:23:38.976Z,26.30
2022-08-10T17:26:36.986Z,26.30
2022-08-10T17:29:59.098Z,26.20
2022-08-10T17:32:45.121Z,26.20
2022-08-10T17:35:35.769Z,26.10
2022-08-10T17:38:25.329Z,26.00
2022-08-10T17:41:14.993Z,25.90
2022-08-10T17:44:05.163Z,25.90
2022-08-10T17:46:55.081Z,25.90
2022-08-10T17:49:44.694Z,25.80
2022-08-10T17:52:34.288Z,25.80
2022-08-10T17:55:22.624Z,25.80
2022-08-10T17:58:16.143Z,25.70
2022-08-10T18:01:40.340Z,25.70
2022-08-10T18:04:19.329Z,25.70
2022-08-10T18:07:11.745Z,25.60
2022-08-10T18:10:00.391Z,25.50
2022-08-10T18:12:51.307Z,25.50
2022-08-10T18:15:39.790Z,25.40
2022-08-10T18:18:30.771Z,25.40
2022-08-10T18:21:23.961Z,25.30
2022-08-10T18:24:18.896Z,25.20
2022-08-10T18:27:09.159Z,25.20
2022-08-10T18:29:59.348Z,25.20
2022-08-10T18:32:51.210Z,25.10
2022-08-10T18:35:39.933Z,25.00
2022-08-10T18:38:29.498Z,25.00
2022-08-10T18:41:20.648Z,24.90
2022-08-10T18:44:13.758Z,24.80
2022-08-10T18:47:05.585Z,24.70
2022-08-10T18:50:01.027Z,24.70
2022-08-10T18:52:53.516Z,24.60
2022-08-10T18:55:46.223Z,24.50
2022-08-10T18:59:03.317Z,24.50
2022-08-10T19:02:08.477Z,24.40
2022-08-10T19:05:30.966Z,24.30
2022-08-10T19:08:35.673Z,24.20
2022-08-10T19:11:40.846Z,24.10
2022-08-10T19:14:36.078Z,24.10
2022-08-10T19:18:05.875Z,24.10
2022-08-10T19:20:47.530Z,24.00
2022-08-10T19:23:44.633Z,23.90
2022-08-10T19:26:46.017Z,23.90
2022-08-10T19:30:10.234Z,23.90
2022-08-10T19:33:03.735Z,23.80
2022-08-10T19:36:05.410Z,23.70
2022-08-10T19:39:06.307Z,23.70
2022-08-10T19:41:59.973Z,23.60
2022-08-10T19:45:07.605Z,23.50
2022-08-10T19:47:59.755Z,23.50
2022-08-10T19:50:55.491Z,23.40
2022-08-10T19:53:54.292Z,23.40
2022-08-10T19:56:55.905Z,23.30
2022-08-10T20:00:16.088Z,23.20
2022-08-10T20:03:12.445Z,23.10
2022-08-10T20:06:19.169Z,23.10
2022-08-10T20:09:15.761Z,23.00
2022-08-10T20:12:05.603Z,22.90
2022-08-10T20:15:04.148Z,22.90
2022-08-10T20:17:57.841Z,22.90
2022-08-10T20:21:20.134Z,22.80
2022-08-10T20:24:12.318Z,22.80
2022-08-10T20:27:58.127Z,22.70
2022-08-10T20:30:15.673Z,22.60
2022-08-10T20:33:09.548Z,22.60
2022-08-10T20:36:04.352Z,22.50
2022-08-10T20:39:03.909Z,22.50
2022-08-10T20:42:02.888Z,22.40
2022-08-10T20:45:00.127Z,22.40
2022-08-10T20:47:57.587Z,22.40
2022-08-10T20:50:49.004Z,22.30
2022-08-10T20:53:43.633Z,22.30
2022-08-10T20:56:42.583Z,22.20
2022-08-10T21:00:03.894Z,22.20
2022-08-10T21:03:06.574Z,22.10
2022-08-10T21:06:07.066Z,22.00
2022-08-10T21:09:04.735Z,22.00
2022-08-10T21:12:16.182Z,21.90
2022-08-10T21:15:15.895Z,21.90
2022-08-10T21:18:20.503Z,21.80
2022-08-10T21:24:45.309Z,21.70
2022-08-10T21:25:42.187Z,21.80
2022-08-10T21:27:55.108Z,21.70
2022-08-10T21:30:53.244Z,21.60
2022-08-10T21:33:51.622Z,21.50
2022-08-10T21:36:52.383Z,21.50
2022-08-10T21:39:51.505Z,21.50
2022-08-10T21:43:08.239Z,21.40
2022-08-10T21:46:20.398Z,21.30
2022-08-10T21:49:36.916Z,21.30
2022-08-10T21:52:53.438Z,21.20
2022-08-10T21:56:07.173Z,21.20
2022-08-10T21:59:21.613Z,21.10
2022-08-10T22:05:57.925Z,21.10
2022-08-10T22:09:06.000Z,21.00
2022-08-10T22:12:24.896Z,21.00
2022-08-10T22:16:03.771Z,21.00
2022-08-10T22:19:14.795Z,20.90
2022-08-10T22:22:30.397Z,20.90
2022-08-10T22:25:53.069Z,20.90
2022-08-10T22:29:04.201Z,20.90
2022-08-10T22:31:25.744Z,21.10
2022-08-10T22:32:18.336Z,20.80
2022-08-10T22:35:46.730Z,20.80
2022-08-10T22:39:11.539Z,20.80
2022-08-10T22:42:26.610Z,20.80
2022-08-10T22:45:34.991Z,20.80
2022-08-10T22:48:39.708Z,20.70
2022-08-10T22:54:39.455Z,20.60
2022-08-10T22:57:44.510Z,20.60
2022-08-10T23:00:31.705Z,20.50
2022-08-10T23:03:21.864Z,20.50
2022-08-10T23:06:13.497Z,20.50
2022-08-10T23:09:02.968Z,20.40
2022-08-10T23:11:54.107Z,20.40
2022-08-10T23:15:00.152Z,20.40
2022-08-10T23:18:11.198Z,20.40
2022-08-10T23:21:00.377Z,20.30
2022-08-10T23:23:47.578Z,20.30
2022-08-10T23:26:35.433Z,20.20
2022-08-10T23:29:24.493Z,20.20
2022-08-10T23:32:17.942Z,20.10
2022-08-10T23:36:31.268Z,20.00
2022-08-10T23:38:24.945Z,20.00
2022-08-10T23:41:13.188Z,20.00
2022-08-10T23:44:04.405Z,19.90
2022-08-10T23:46:54.969Z,19.90
2022-08-10T23:49:44.267Z,19.90
2022-08-10T23:52:34.757Z,19.80
2022-08-10T23:55:25.519Z,19.80
2022-08-10T23:58:33.479Z,19.80
